Time;durP1;ratioP1;P1;durP2;ratioP2;P2;SDS_P1;SDS_P2;PMS_P1;PMS_P2;Temp;Humidity;BMP_temperature;BMP_pressure;BME280_temperature;BME280_humidity;BME280_pressure;Samples;Min_cycle;Max_cycle;Signal;HPM_P1;HPM_P2
2023/02/27 00:01:03;;;;;;;5.85;4.28;;;;;;;;;;5042801;28;20208;-51
2023/02/27 00:03:29;;;;;;;5.95;4.63;;;;;;;;;;5057418;28;20608;-51
2023/02/27 00:05:55;;;;;;;5.35;4.40;;;;;;;;;;5059378;28;20171;-51
2023/02/27 00:08:21;;;;;;;5.07;4.57;;;;;;;;;;5041039;28;20191;-51
2023/02/27 00:10:47;;;;;;;5.57;4.30;;;;;;;;;;5059770;28;20503;-51
2023/02/27 00:13:13;;;;;;;5.38;4.30;;;;;;;;;;5064640;28;20175;-51
2023/02/27 00:15:39;;;;;;;6.10;4.43;;;;;;;;;;5055210;28;20190;-51
2023/02/27 00:18:06;;;;;;;5.35;4.30;;;;;;;;;;5040986;28;20225;-52
2023/02/27 00:20:36;;;;;;;5.07;4.47;;;;;;;;;;5048212;28;20213;-51
2023/02/27 00:23:02;;;;;;;4.18;3.78;;;;;;;;;;5043637;28;20609;-51
2023/02/27 00:25:28;;;;;;;4.85;4.10;;;;;;;;;;5046235;28;20175;-51
2023/02/27 00:27:55;;;;;;;5.68;4.32;;;;;;;;;;5049622;28;20806;-51
2023/02/27 00:30:21;;;;;;;5.07;4.13;;;;;;;;;;5045688;28;20223;-51
2023/02/27 00:32:47;;;;;;;5.18;4.43;;;;;;;;;;5049656;28;20633;-51
2023/02/27 00:35:13;;;;;;;3.88;3.47;;;;;;;;;;5058249;28;20238;-51
2023/02/27 00:37:39;;;;;;;4.72;4.00;;;;;;;;;;5048698;28;20211;-51
2023/02/27 00:40:06;;;;;;;5.03;4.25;;;;;;;;;;5042722;28;20179;-51
2023/02/27 00:42:32;;;;;;;5.30;3.92;;;;;;;;;;5055574;28;20276;-51
2023/02/27 00:44:58;;;;;;;6.07;4.20;;;;;;;;;;5062551;28;20175;-51
2023/02/27 00:47:23;;;;;;;4.63;4.18;;;;;;;;;;5048755;28;20455;-51
2023/02/27 00:49:49;;;;;;;4.40;3.80;;;;;;;;;;5046101;28;20211;-51
2023/02/27 00:52:15;;;;;;;5.57;4.15;;;;;;;;;;5050098;28;20207;-51
2023/02/27 00:54:41;;;;;;;5.40;4.20;;;;;;;;;;5049435;28;20186;-51
2023/02/27 00:57:07;;;;;;;5.30;4.30;;;;;;;;;;5046607;28;20636;-51
2023/02/27 00:59:33;;;;;;;4.03;3.63;;;;;;;;;;5043431;28;20178;-51
2023/02/27 01:01:59;;;;;;;4.03;3.60;;;;;;;;;;5036337;28;20188;-51
2023/02/27 01:04:25;;;;;;;4.63;3.95;;;;;;;;;;5036497;28;20194;-51
2023/02/27 01:06:51;;;;;;;4.38;3.95;;;;;;;;;;5044606;28;20188;-51
2023/02/27 01:09:17;;;;;;;4.22;3.42;;;;;;;;;;5038747;28;20491;-51
2023/02/27 01:11:43;;;;;;;4.97;3.67;;;;;;;;;;5058765;28;20186;-51
2023/02/27 01:14:08;;;;;;;4.35;3.53;;;;;;;;;;5061017;28;20188;-51
2023/02/27 01:16:34;;;;;;;4.75;3.60;;;;;;;;;;5047469;28;20281;-51
2023/02/27 01:19:00;;;;;;;4.93;3.63;;;;;;;;;;5039158;28;20183;-51
2023/02/27 01:21:26;;;;;;;4.53;3.88;;;;;;;;;;5035895;28;20233;-51
2023/02/27 01:23:52;;;;;;;4.57;3.50;;;;;;;;;;5035949;28;20180;-51
2023/02/27 01:26:18;;;;;;;3.72;3.33;;;;;;;;;;5047343;28;20179;-51
2023/02/27 01:28:44;;;;;;;3.55;3.03;;;;;;;;;;5042828;28;20199;-51
2023/02/27 01:31:10;;;;;;;5.00;3.78;;;;;;;;;;5048864;28;20573;-51
2023/02/27 01:33:36;;;;;;;4.20;3.53;;;;;;;;;;5043449;28;20429;-51
2023/02/27 01:36:02;;;;;;;4.32;3.33;;;;;;;;;;5038396;28;20245;-51
2023/02/27 01:38:28;;;;;;;3.58;3.25;;;;;;;;;;5054761;28;20316;-51
2023/02/27 01:40:54;;;;;;;4.55;3.33;;;;;;;;;;5052661;28;20723;-51
2023/02/27 01:43:21;;;;;;;3.50;3.20;;;;;;;;;;5050005;28;20488;-51
2023/02/27 01:45:48;;;;;;;4.45;3.08;;;;;;;;;;5047971;28;20180;-51
2023/02/27 01:48:17;;;;;;;4.18;3.65;;;;;;;;;;5053708;28;20187;-51
2023/02/27 01:50:48;;;;;;;4.25;3.35;;;;;;;;;;5053904;28;20186;-51
2023/02/27 01:53:14;;;;;;;3.42;2.97;;;;;;;;;;5054898;28;20262;-51
2023/02/27 01:55:40;;;;;;;3.78;3.38;;;;;;;;;;5043865;28;20266;-51
2023/02/27 01:58:07;;;;;;;4.28;3.53;;;;;;;;;;5036386;28;20204;-51
2023/02/27 02:00:33;;;;;;;4.85;3.65;;;;;;;;;;5050806;28;20168;-52
2023/02/27 02:03:12;;;;;;;4.47;3.38;;;;;;;;;;5043425;28;20456;-51
2023/02/27 02:05:38;;;;;;;3.38;2.95;;;;;;;;;;5039615;28;20225;-54
2023/02/27 02:08:05;;;;;;;3.70;3.30;;;;;;;;;;5043853;28;20189;-53
2023/02/27 02:10:31;;;;;;;4.15;3.17;;;;;;;;;;5038628;28;20692;-51
2023/02/27 02:12:57;;;;;;;3.78;3.10;;;;;;;;;;5058875;28;20207;-51
2023/02/27 02:15:26;;;;;;;3.45;3.13;;;;;;;;;;5059785;28;20247;-51
2023/02/27 02:18:31;;;;;;;4.95;3.47;;;;;;;;;;5040830;28;20214;-51
2023/02/27 02:21:06;;;;;;;4.50;2.97;;;;;;;;;;5025060;28;20578;-51
2023/02/27 02:23:40;;;;;;;3.90;3.20;;;;;;;;;;5008743;28;20172;-51
2023/02/27 02:26:24;;;;;;;4.20;2.95;;;;;;;;;;5037642;28;20519;-51
2023/02/27 02:29:02;;;;;;;3.40;3.10;;;;;;;;;;5045079;28;20456;-51
2023/02/27 02:31:55;;;;;;;3.53;2.95;;;;;;;;;;5035379;28;20187;-51
2023/02/27 02:34:38;;;;;;;3.85;3.10;;;;;;;;;;5042282;28;20568;-51
2023/02/27 02:37:13;;;;;;;3.47;3.17;;;;;;;;;;5038593;28;20210;-51
2023/02/27 02:40:04;;;;;;;3.70;3.08;;;;;;;;;;5050189;28;20198;-51
2023/02/27 02:42:30;;;;;;;3.47;3.17;;;;;;;;;;5051558;28;20730;-51
2023/02/27 02:45:15;;;;;;;3.33;3.00;;;;;;;;;;5057611;28;20175;-51
2023/02/27 02:47:50;;;;;;;4.57;3.28;;;;;;;;;;5038110;28;20581;-51
2023/02/27 02:50:21;;;;;;;4.00;3.00;;;;;;;;;;5047479;28;20523;-51
2023/02/27 02:53:00;;;;;;;3.53;2.97;;;;;;;;;;5042440;28;20207;-51
2023/02/27 02:55:34;;;;;;;3.63;2.95;;;;;;;;;;5041091;28;20183;-51
2023/02/27 02:58:03;;;;;;;3.58;2.60;;;;;;;;;;5035409;28;20225;-51
2023/02/27 03:00:49;;;;;;;3.38;2.60;;;;;;;;;;5049470;28;20263;-51
2023/02/27 03:03:15;;;;;;;3.38;2.70;;;;;;;;;;5034521;28;20176;-51
2023/02/27 03:05:46;;;;;;;3.50;2.70;;;;;;;;;;5059462;28;20185;-51
2023/02/27 03:08:14;;;;;;;3.15;2.72;;;;;;;;;;5041901;28;20259;-51
2023/02/27 03:10:44;;;;;;;3.55;2.60;;;;;;;;;;5051092;28;20198;-51
2023/02/27 03:13:31;;;;;;;3.10;2.80;;;;;;;;;;5063668;28;20178;-51
2023/02/27 03:16:13;;;;;;;3.33;2.95;;;;;;;;;;5049860;28;20258;-51
2023/02/27 03:18:49;;;;;;;3.53;3.00;;;;;;;;;;5044233;28;20210;-51
2023/02/27 03:21:18;;;;;;;4.25;3.05;;;;;;;;;;5036374;28;20262;-51
2023/02/27 03:23:44;;;;;;;3.65;2.75;;;;;;;;;;5037658;28;20260;-51
2023/02/27 03:26:12;;;;;;;3.65;2.80;;;;;;;;;;5049638;28;20183;-52
2023/02/27 03:28:39;;;;;;;2.88;2.58;;;;;;;;;;5044160;28;20206;-51
2023/02/27 03:31:09;;;;;;;4.28;3.05;;;;;;;;;;5061252;28;20248;-51
2023/02/27 03:33:40;;;;;;;3.15;2.60;;;;;;;;;;5055215;28;20183;-51
2023/02/27 03:36:11;;;;;;;2.83;2.58;;;;;;;;;;5046672;28;20259;-51
2023/02/27 03:38:44;;;;;;;3.83;2.88;;;;;;;;;;5043171;28;20216;-51
2023/02/27 03:41:13;;;;;;;2.90;2.60;;;;;;;;;;5041725;28;20268;-51
2023/02/27 03:43:45;;;;;;;4.47;2.58;;;;;;;;;;5072314;28;20455;-51
2023/02/27 03:46:14;;;;;;;2.67;2.40;;;;;;;;;;5054054;28;20622;-53
2023/02/27 03:48:43;;;;;;;3.05;2.65;;;;;;;;;;5041856;28;20188;-51
2023/02/27 03:51:10;;;;;;;2.33;2.15;;;;;;;;;;5041146;28;20271;-51
2023/02/27 03:53:48;;;;;;;3.38;2.42;;;;;;;;;;5034926;28;20184;-51
2023/02/27 03:56:16;;;;;;;3.28;2.58;;;;;;;;;;5041126;28;20290;-51
2023/02/27 03:58:42;;;;;;;3.35;2.67;;;;;;;;;;5061596;28;20260;-51
2023/02/27 04:01:08;;;;;;;2.50;2.30;;;;;;;;;;5046042;28;20480;-51
2023/02/27 04:03:36;;;;;;;3.17;2.47;;;;;;;;;;5033646;28;20180;-51
2023/02/27 04:07:21;;;;;;;2.50;2.30;;;;;;;;;;5035846;28;20184;-51
2023/02/27 04:08:56;;;;;;;3.05;2.55;;;;;;;;;;5041766;28;20267;-51
2023/02/27 04:11:48;;;;;;;4.20;2.53;;;;;;;;;;5054870;28;20206;-51
2023/02/27 04:14:32;;;;;;;2.67;2.47;;;;;;;;;;5053784;28;20567;-51
2023/02/27 04:17:09;;;;;;;2.92;2.58;;;;;;;;;;5044854;28;20609;-51
2023/02/27 04:19:41;;;;;;;3.08;2.20;;;;;;;;;;5038296;28;20465;-51
2023/02/27 04:22:13;;;;;;;2.58;2.28;;;;;;;;;;5039693;28;20275;-51
2023/02/27 04:24:52;;;;;;;3.05;2.40;;;;;;;;;;5039038;28;20179;-51
2023/02/27 04:27:27;;;;;;;2.35;2.15;;;;;;;;;;5055696;28;20210;-51
2023/02/27 04:30:12;;;;;;;3.30;2.55;;;;;;;;;;5047355;28;20202;-51
2023/02/27 04:32:58;;;;;;;3.08;2.53;;;;;;;;;;5048201;28;20194;-51
2023/02/27 04:35:36;;;;;;;3.60;2.17;;;;;;;;;;5045530;28;20247;-51
2023/02/27 04:38:22;;;;;;;3.05;2.47;;;;;;;;;;5050784;28;20278;-51
2023/02/27 04:40:54;;;;;;;3.28;2.50;;;;;;;;;;5051550;28;20505;-52
2023/02/27 04:43:21;;;;;;;2.63;2.22;;;;;;;;;;5064613;28;20272;-52
2023/02/27 04:45:48;;;;;;;2.60;2.40;;;;;;;;;;5056239;28;20267;-51
2023/02/27 04:48:23;;;;;;;3.35;2.38;;;;;;;;;;5046191;28;20198;-52
2023/02/27 04:51:01;;;;;;;2.83;2.35;;;;;;;;;;5037151;28;20251;-52
2023/02/27 04:53:36;;;;;;;2.45;2.22;;;;;;;;;;5049678;28;20194;-51
2023/02/27 04:56:09;;;;;;;2.97;2.35;;;;;;;;;;5035873;28;20222;-52
2023/02/27 04:58:40;;;;;;;2.50;2.30;;;;;;;;;;5036257;28;20199;-52
2023/02/27 05:01:11;;;;;;;2.55;2.17;;;;;;;;;;5037703;28;20184;-52
2023/02/27 05:03:42;;;;;;;3.05;2.30;;;;;;;;;;5040892;28;20179;-52
2023/02/27 05:06:10;;;;;;;2.67;2.15;;;;;;;;;;5048552;28;20184;-52
2023/02/27 05:08:41;;;;;;;4.32;2.30;;;;;;;;;;5044495;28;20468;-51
2023/02/27 05:11:10;;;;;;;8.50;2.85;;;;;;;;;;5040397;28;20614;-52
2023/02/27 05:13:52;;;;;;;6.72;3.55;;;;;;;;;;5037619;28;20506;-52
2023/02/27 05:16:36;;;;;;;7.82;3.80;;;;;;;;;;5043452;28;20183;-52
2023/02/27 05:19:03;;;;;;;11.32;3.35;;;;;;;;;;5046450;28;20582;-51
2023/02/27 05:21:30;;;;;;;14.07;3.78;;;;;;;;;;5041044;28;20187;-51
2023/02/27 05:24:15;;;;;;;9.02;3.40;;;;;;;;;;5052831;28;20554;-52
2023/02/27 05:26:49;;;;;;;12.73;3.97;;;;;;;;;;5039197;28;20254;-51
2023/02/27 05:29:24;;;;;;;15.45;3.70;;;;;;;;;;5047164;28;20214;-52
2023/02/27 05:32:03;;;;;;;9.43;3.80;;;;;;;;;;5054973;28;20193;-51
2023/02/27 05:34:34;;;;;;;6.75;3.28;;;;;;;;;;5054803;28;20209;-52
2023/02/27 05:37:03;;;;;;;10.65;3.60;;;;;;;;;;5060081;28;20206;-51
2023/02/27 05:39:30;;;;;;;8.70;3.70;;;;;;;;;;5039433;28;20472;-51
2023/02/27 05:42:27;;;;;;;13.30;3.80;;;;;;;;;;5053261;28;20214;-52
2023/02/27 05:44:56;;;;;;;9.40;3.42;;;;;;;;;;5063405;28;20253;-52
2023/02/27 05:47:24;;;;;;;9.73;3.45;;;;;;;;;;5054671;28;20521;-51
2023/02/27 05:49:50;;;;;;;8.73;3.50;;;;;;;;;;5046980;28;20598;-51
2023/02/27 05:52:18;;;;;;;12.80;3.80;;;;;;;;;;5052527;28;20194;-51
2023/02/27 05:54:49;;;;;;;10.30;3.50;;;;;;;;;;5044339;28;20197;-51
2023/02/27 05:57:17;;;;;;;6.75;3.53;;;;;;;;;;5061035;28;20701;-52
2023/02/27 05:59:49;;;;;;;6.70;3.13;;;;;;;;;;5048256;28;20211;-51
2023/02/27 06:02:15;;;;;;;7.95;3.17;;;;;;;;;;5046921;28;20271;-52
2023/02/27 06:04:41;;;;;;;7.07;2.75;;;;;;;;;;5048551;28;20268;-52
2023/02/27 06:07:07;;;;;;;5.57;2.80;;;;;;;;;;5056597;28;20217;-51
2023/02/27 06:09:33;;;;;;;8.07;3.45;;;;;;;;;;5052993;28;20188;-51
2023/02/27 06:12:01;;;;;;;7.05;3.50;;;;;;;;;;5057022;28;20618;-51
2023/02/27 06:14:27;;;;;;;5.75;3.25;;;;;;;;;;5051693;28;20507;-51
2023/02/27 06:16:52;;;;;;;5.15;3.20;;;;;;;;;;5048744;28;20594;-51
2023/02/27 06:19:18;;;;;;;7.15;3.13;;;;;;;;;;5040851;28;20266;-51
2023/02/27 06:21:44;;;;;;;7.80;3.20;;;;;;;;;;5050181;28;20258;-51
2023/02/27 06:24:10;;;;;;;6.68;2.95;;;;;;;;;;5052251;28;20353;-51
2023/02/27 06:26:36;;;;;;;8.65;3.20;;;;;;;;;;5052901;28;20193;-51
2023/02/27 06:29:02;;;;;;;7.18;3.00;;;;;;;;;;5051496;28;20265;-51
2023/02/27 06:31:28;;;;;;;6.90;2.88;;;;;;;;;;5054518;28;20464;-52
2023/02/27 06:33:54;;;;;;;7.70;3.00;;;;;;;;;;5044938;28;20511;-51
2023/02/27 06:36:21;;;;;;;5.35;2.97;;;;;;;;;;5039843;28;20180;-51
2023/02/27 06:38:47;;;;;;;7.97;3.30;;;;;;;;;;5050594;28;20578;-53
2023/02/27 06:41:13;;;;;;;4.38;2.80;;;;;;;;;;5046671;28;20187;-51
2023/02/27 06:43:39;;;;;;;6.13;2.80;;;;;;;;;;5049793;28;20202;-51
2023/02/27 06:46:05;;;;;;;4.47;2.63;;;;;;;;;;5052528;28;20508;-51
2023/02/27 06:48:31;;;;;;;4.15;2.38;;;;;;;;;;5060272;28;20215;-52
2023/02/27 06:50:57;;;;;;;4.30;2.70;;;;;;;;;;5038692;28;20585;-51
2023/02/27 06:53:23;;;;;;;5.63;2.78;;;;;;;;;;5036106;28;20183;-51
2023/02/27 06:55:49;;;;;;;5.35;2.60;;;;;;;;;;5046727;28;20175;-51
2023/02/27 06:58:15;;;;;;;5.40;3.03;;;;;;;;;;5046274;28;20217;-52
2023/02/27 07:00:42;;;;;;;4.43;3.05;;;;;;;;;;5034560;28;20179;-51
2023/02/27 07:03:08;;;;;;;4.28;2.30;;;;;;;;;;5041278;28;20184;-51
2023/02/27 07:05:33;;;;;;;4.72;2.78;;;;;;;;;;5037542;28;20182;-52
2023/02/27 07:07:59;;;;;;;5.28;3.13;;;;;;;;;;5040151;28;20183;-52
2023/02/27 07:10:25;;;;;;;6.75;3.05;;;;;;;;;;5044433;28;20454;-52
2023/02/27 07:12:52;;;;;;;4.40;2.47;;;;;;;;;;5064417;28;20182;-51
2023/02/27 07:15:18;;;;;;;7.13;2.80;;;;;;;;;;5048487;28;20187;-52
2023/02/27 07:17:44;;;;;;;4.85;2.63;;;;;;;;;;5050813;28;20294;-51
2023/02/27 07:20:10;;;;;;;3.20;2.53;;;;;;;;;;5035955;28;20460;-51
2023/02/27 07:22:37;;;;;;;5.18;2.90;;;;;;;;;;5054410;28;20594;-52
2023/02/27 07:25:04;;;;;;;4.80;2.85;;;;;;;;;;5048885;28;20179;-52
2023/02/27 07:27:30;;;;;;;3.78;2.67;;;;;;;;;;5052883;28;20195;-52
2023/02/27 07:29:56;;;;;;;4.53;2.53;;;;;;;;;;5056462;28;20215;-52
2023/02/27 07:32:22;;;;;;;3.85;2.28;;;;;;;;;;5050992;28;20188;-51
2023/02/27 07:34:48;;;;;;;5.45;2.97;;;;;;;;;;5033346;28;20187;-52
2023/02/27 07:37:14;;;;;;;4.43;2.80;;;;;;;;;;5049302;28;20216;-51
2023/02/27 07:39:40;;;;;;;2.72;2.10;;;;;;;;;;5050845;28;20179;-51
2023/02/27 07:42:06;;;;;;;3.28;2.30;;;;;;;;;;5062942;28;20186;-55
2023/02/27 07:44:32;;;;;;;4.82;2.90;;;;;;;;;;5047220;28;20187;-51
2023/02/27 07:46:58;;;;;;;2.90;2.30;;;;;;;;;;5048430;28;20178;-52
2023/02/27 07:49:24;;;;;;;3.38;2.70;;;;;;;;;;5043604;28;20179;-52
2023/02/27 07:51:50;;;;;;;3.45;2.60;;;;;;;;;;5046491;28;20425;-51
2023/02/27 07:54:16;;;;;;;3.78;2.35;;;;;;;;;;5049587;28;20179;-51
2023/02/27 07:56:42;;;;;;;3.00;2.17;;;;;;;;;;5043000;28;20190;-52
2023/02/27 07:59:08;;;;;;;4.75;2.65;;;;;;;;;;5047925;28;20287;-51
2023/02/27 08:01:34;;;;;;;4.43;2.60;;;;;;;;;;5040952;28;20168;-51
2023/02/27 08:04:00;;;;;;;5.10;2.88;;;;;;;;;;5049613;28;20205;-52
2023/02/27 08:06:26;;;;;;;3.28;2.22;;;;;;;;;;5042217;28;20247;-51
2023/02/27 08:08:52;;;;;;;3.13;2.40;;;;;;;;;;5051714;28;20190;-51
2023/02/27 08:11:18;;;;;;;3.22;2.22;;;;;;;;;;5048044;28;20586;-52
2023/02/27 08:13:45;;;;;;;3.72;2.33;;;;;;;;;;5052217;28;20287;-51
2023/02/27 08:16:11;;;;;;;2.88;2.50;;;;;;;;;;5047807;28;20179;-51
2023/02/27 08:18:37;;;;;;;3.85;2.63;;;;;;;;;;5047493;28;20211;-51
2023/02/27 08:21:06;;;;;;;3.10;2.60;;;;;;;;;;5052167;28;20566;-51
2023/02/27 08:23:33;;;;;;;2.97;2.25;;;;;;;;;;5038594;28;20233;-51
2023/02/27 08:25:59;;;;;;;3.88;2.40;;;;;;;;;;5053882;28;20220;-51
2023/02/27 08:28:26;;;;;;;4.13;2.30;;;;;;;;;;5037149;28;20218;-52
2023/02/27 08:30:52;;;;;;;3.75;2.58;;;;;;;;;;5052163;28;20175;-51
2023/02/27 08:33:18;;;;;;;3.50;2.40;;;;;;;;;;5049137;28;20191;-51
2023/02/27 08:35:44;;;;;;;3.90;2.47;;;;;;;;;;5045364;28;20567;-51
2023/02/27 08:38:10;;;;;;;3.65;2.35;;;;;;;;;;5044642;28;20210;-52
2023/02/27 08:40:36;;;;;;;3.78;2.20;;;;;;;;;;5044044;28;21802;-51
2023/02/27 08:43:01;;;;;;;2.90;2.13;;;;;;;;;;5054384;28;20183;-51
2023/02/27 08:45:27;;;;;;;2.72;2.33;;;;;;;;;;5043349;28;20199;-51
2023/02/27 08:47:53;;;;;;;2.97;2.22;;;;;;;;;;5040764;28;20258;-51
2023/02/27 08:50:19;;;;;;;2.72;2.30;;;;;;;;;;5048552;28;20237;-51
2023/02/27 08:52:45;;;;;;;3.08;2.38;;;;;;;;;;5052734;28;20263;-52
2023/02/27 08:55:11;;;;;;;3.15;2.20;;;;;;;;;;5051316;28;20208;-52
2023/02/27 08:57:37;;;;;;;3.25;2.20;;;;;;;;;;5053378;28;20214;-51
2023/02/27 09:00:05;;;;;;;3.55;2.10;;;;;;;;;;5056146;28;20178;-51
2023/02/27 09:02:31;;;;;;;3.47;2.40;;;;;;;;;;5045249;28;20283;-51
2023/02/27 09:04:57;;;;;;;3.35;2.22;;;;;;;;;;5044201;28;20183;-52
2023/02/27 09:07:24;;;;;;;2.45;2.05;;;;;;;;;;5052525;28;20600;-51
2023/02/27 09:09:49;;;;;;;2.90;2.42;;;;;;;;;;5059889;28;20403;-51
2023/02/27 09:12:15;;;;;;;3.63;2.05;;;;;;;;;;5051872;28;20592;-51
2023/02/27 09:14:41;;;;;;;2.47;2.20;;;;;;;;;;5042080;28;20233;-51
2023/02/27 09:17:07;;;;;;;3.97;2.55;;;;;;;;;;5043669;28;20198;-51
2023/02/27 09:19:33;;;;;;;2.25;1.90;;;;;;;;;;5043850;28;20306;-51
2023/02/27 09:21:59;;;;;;;2.38;2.00;;;;;;;;;;5046772;28;20563;-51
2023/02/27 09:24:25;;;;;;;2.13;1.90;;;;;;;;;;5048244;28;20221;-52
2023/02/27 09:26:51;;;;;;;2.75;1.95;;;;;;;;;;5046756;28;20183;-52
2023/02/27 09:29:17;;;;;;;2.67;2.00;;;;;;;;;;5047287;28;20335;-51
2023/02/27 09:31:43;;;;;;;2.58;2.10;;;;;;;;;;5038843;28;20259;-52
2023/02/27 09:34:09;;;;;;;2.78;2.15;;;;;;;;;;5047727;28;20259;-52
2023/02/27 09:36:35;;;;;;;2.33;1.85;;;;;;;;;;5041787;28;20460;-52
2023/02/27 09:39:01;;;;;;;1.70;1.60;;;;;;;;;;5040897;28;20219;-52
2023/02/27 09:41:33;;;;;;;2.35;2.05;;;;;;;;;;5055827;28;20185;-52
2023/02/27 09:44:00;;;;;;;2.33;1.73;;;;;;;;;;5047650;28;20179;-52
2023/02/27 09:46:27;;;;;;;3.00;2.00;;;;;;;;;;5053354;28;20577;-52
2023/02/27 09:48:57;;;;;;;2.85;2.00;;;;;;;;;;5043453;28;20200;-52
2023/02/27 09:51:23;;;;;;;2.10;1.90;;;;;;;;;;5051173;28;20183;-52
2023/02/27 09:53:53;;;;;;;1.63;1.52;;;;;;;;;;5037768;28;20249;-53
2023/02/27 09:56:21;;;;;;;1.98;1.65;;;;;;;;;;5041279;28;20175;-53
2023/02/27 09:59:06;;;;;;;3.63;1.98;;;;;;;;;;5045901;28;20204;-53
2023/02/27 10:01:39;;;;;;;1.95;1.70;;;;;;;;;;5044022;28;20539;-53
2023/02/27 10:04:24;;;;;;;1.70;1.60;;;;;;;;;;5036420;28;20551;-52
2023/02/27 10:06:52;;;;;;;2.30;1.77;;;;;;;;;;5051056;28;20641;-52
2023/02/27 10:09:30;;;;;;;1.92;1.67;;;;;;;;;;5058934;28;20211;-53
2023/02/27 10:11:56;;;;;;;1.50;1.40;;;;;;;;;;5045016;28;20475;-53
2023/02/27 10:14:38;;;;;;;1.95;1.50;;;;;;;;;;5046529;28;20190;-52
2023/02/27 10:17:06;;;;;;;1.60;1.42;;;;;;;;;;5038164;28;20514;-52
2023/02/27 10:19:33;;;;;;;2.83;1.48;;;;;;;;;;5056355;28;20188;-52
2023/02/27 10:22:03;;;;;;;2.72;1.85;;;;;;;;;;5037804;28;20192;-52
2023/02/27 10:24:35;;;;;;;2.30;1.45;;;;;;;;;;5039617;28;20184;-52
2023/02/27 10:27:04;;;;;;;1.77;1.67;;;;;;;;;;5044547;28;20266;-52
2023/02/27 10:29:30;;;;;;;1.75;1.60;;;;;;;;;;5048235;28;20211;-52
2023/02/27 10:32:09;;;;;;;1.55;1.23;;;;;;;;;;5051167;28;20186;-52
2023/02/27 10:34:37;;;;;;;1.95;1.55;;;;;;;;;;5044230;28;20201;-52
2023/02/27 10:37:05;;;;;;;1.80;1.58;;;;;;;;;;5041009;28;20598;-52
2023/02/27 10:39:36;;;;;;;2.10;1.70;;;;;;;;;;5041162;28;20248;-52
2023/02/27 10:42:05;;;;;;;1.60;1.50;;;;;;;;;;5052697;28;20184;-52
2023/02/27 10:44:32;;;;;;;1.80;1.50;;;;;;;;;;5047544;28;20506;-52
2023/02/27 10:46:58;;;;;;;1.60;1.30;;;;;;;;;;5053884;28;20179;-51
2023/02/27 10:49:24;;;;;;;1.60;1.30;;;;;;;;;;5054241;28;20554;-51
2023/02/27 10:52:25;;;;;;;1.70;1.60;;;;;;;;;;5045003;28;20553;-51
2023/02/27 10:54:51;;;;;;;1.83;1.70;;;;;;;;;;5019737;28;20205;-51
2023/02/27 10:57:19;;;;;;;2.15;1.30;;;;;;;;;;5030511;28;20305;-52
2023/02/27 10:59:56;;;;;;;1.58;1.48;;;;;;;;;;5042557;28;20246;-51
2023/02/27 11:02:24;;;;;;;1.98;1.55;;;;;;;;;;5046429;28;20689;-51
2023/02/27 11:04:54;;;;;;;1.85;1.52;;;;;;;;;;5042415;28;20226;-51
2023/02/27 11:07:35;;;;;;;1.40;1.30;;;;;;;;;;5034279;28;20191;-52
2023/02/27 11:10:16;;;;;;;1.33;1.17;;;;;;;;;;5034384;28;20225;-51
2023/02/27 11:12:55;;;;;;;2.65;1.50;;;;;;;;;;5052690;28;20183;-51
2023/02/27 11:15:24;;;;;;;1.30;1.20;;;;;;;;;;5033036;28;20253;-51
2023/02/27 11:17:50;;;;;;;1.55;1.35;;;;;;;;;;5036268;28;20216;-51
2023/02/27 11:20:49;;;;;;;1.50;1.30;;;;;;;;;;5034457;28;20188;-52
2023/02/27 11:23:22;;;;;;;1.35;1.20;;;;;;;;;;5046954;28;20277;-51
2023/02/27 11:25:48;;;;;;;1.50;1.17;;;;;;;;;;5040553;28;20283;-51
2023/02/27 11:28:21;;;;;;;1.67;1.55;;;;;;;;;;5057612;28;20350;-52
2023/02/27 11:30:58;;;;;;;1.85;1.27;;;;;;;;;;5063569;28;20191;-52
2023/02/27 11:33:25;;;;;;;2.15;1.23;;;;;;;;;;5044069;28;20179;-52
2023/02/27 11:35:52;;;;;;;1.40;1.30;;;;;;;;;;5049003;28;20447;-51
2023/02/27 11:38:20;;;;;;;3.17;1.50;;;;;;;;;;5050378;28;20214;-52
2023/02/27 11:40:50;;;;;;;3.72;1.20;;;;;;;;;;5056231;28;20186;-51
2023/02/27 11:43:18;;;;;;;3.85;1.73;;;;;;;;;;5051848;28;20179;-52
2023/02/27 11:45:49;;;;;;;5.22;2.00;;;;;;;;;;5049178;28;20198;-52
2023/02/27 11:48:18;;;;;;;3.80;1.50;;;;;;;;;;5044413;28;20291;-51
2023/02/27 11:50:52;;;;;;;4.15;1.40;;;;;;;;;;5041014;28;20188;-51
2023/02/27 11:53:36;;;;;;;3.83;1.50;;;;;;;;;;5039026;28;20285;-52
2023/02/27 11:56:04;;;;;;;5.85;1.52;;;;;;;;;;5049372;28;20225;-51
2023/02/27 11:58:34;;;;;;;1.38;1.27;;;;;;;;;;5049426;28;20257;-51
2023/02/27 12:01:02;;;;;;;3.17;1.30;;;;;;;;;;5038294;28;20199;-51
2023/02/27 12:03:28;;;;;;;3.22;1.40;;;;;;;;;;5056914;28;20237;-51
2023/02/27 12:05:55;;;;;;;2.30;1.42;;;;;;;;;;5043996;28;20554;-50
2023/02/27 12:08:31;;;;;;;5.00;1.30;;;;;;;;;;5042155;28;20244;-52
2023/02/27 12:11:01;;;;;;;3.33;1.40;;;;;;;;;;5047211;28;20206;-52
2023/02/27 12:13:29;;;;;;;2.60;1.55;;;;;;;;;;5047185;28;20241;-52
2023/02/27 12:15:58;;;;;;;4.30;1.40;;;;;;;;;;5050583;28;20187;-51
2023/02/27 12:18:37;;;;;;;2.67;1.50;;;;;;;;;;5046556;28;20593;-51
2023/02/27 12:21:05;;;;;;;4.18;1.52;;;;;;;;;;5043313;28;20183;-51
2023/02/27 12:23:49;;;;;;;3.28;1.38;;;;;;;;;;5050855;28;20250;-51
2023/02/27 12:26:27;;;;;;;19.42;1.90;;;;;;;;;;5048744;28;20207;-51
2023/02/27 12:28:56;;;;;;;5.22;1.45;;;;;;;;;;5041587;28;20215;-51
2023/02/27 12:31:22;;;;;;;3.22;1.23;;;;;;;;;;5054356;28;20206;-51
2023/02/27 12:33:51;;;;;;;2.78;1.23;;;;;;;;;;5052088;28;20547;-51
2023/02/27 12:36:17;;;;;;;3.92;1.40;;;;;;;;;;5048638;28;20198;-51
2023/02/27 12:38:43;;;;;;;3.33;1.42;;;;;;;;;;5057481;28;20215;-51
2023/02/27 12:41:32;;;;;;;3.20;1.52;;;;;;;;;;5049384;28;20187;-51
2023/02/27 12:44:18;;;;;;;1.40;1.13;;;;;;;;;;5048633;28;20184;-52
2023/02/27 12:46:53;;;;;;;2.60;1.73;;;;;;;;;;5055258;28;20198;-51
2023/02/27 12:49:33;;;;;;;4.63;1.30;;;;;;;;;;5038270;28;20506;-51
2023/02/27 12:52:19;;;;;;;4.55;1.48;;;;;;;;;;5036236;28;20485;-51
2023/02/27 12:54:55;;;;;;;3.78;1.20;;;;;;;;;;5045223;28;20171;-51
2023/02/27 12:57:28;;;;;;;3.08;1.35;;;;;;;;;;5043436;28;20218;-51
2023/02/27 13:00:11;;;;;;;3.00;1.30;;;;;;;;;;5036081;28;20183;-51
2023/02/27 13:02:51;;;;;;;3.53;1.33;;;;;;;;;;5037760;28;20179;-51
2023/02/27 13:05:17;;;;;;;1.90;1.25;;;;;;;;;;5049751;28;20178;-51
2023/02/27 13:07:51;;;;;;;2.85;1.50;;;;;;;;;;5051058;28;20694;-51
2023/02/27 13:10:36;;;;;;;2.75;1.20;;;;;;;;;;5051322;28;20215;-52
2023/02/27 13:13:14;;;;;;;3.15;1.20;;;;;;;;;;5058992;28;20214;-51
2023/02/27 13:15:47;;;;;;;1.40;1.20;;;;;;;;;;5041902;28;20198;-51
2023/02/27 13:18:22;;;;;;;21.45;2.05;;;;;;;;;;5035236;28;20571;-52
2023/02/27 13:20:53;;;;;;;4.00;1.80;;;;;;;;;;5045402;28;20187;-51
2023/02/27 13:23:26;;;;;;;3.10;1.50;;;;;;;;;;5064704;28;20183;-51
2023/02/27 13:25:53;;;;;;;3.20;1.40;;;;;;;;;;5046974;28;20183;-51
2023/02/27 13:28:22;;;;;;;6.53;1.75;;;;;;;;;;5051456;28;20273;-50
2023/02/27 13:31:09;;;;;;;8.23;1.85;;;;;;;;;;5056733;28;20196;-48
2023/02/27 13:33:58;;;;;;;6.20;1.52;;;;;;;;;;5059831;28;20187;-51
2023/02/27 13:36:29;;;;;;;3.45;1.50;;;;;;;;;;5041502;28;20188;-51
2023/02/27 13:38:55;;;;;;;5.38;1.58;;;;;;;;;;5071392;28;20215;-51
2023/02/27 13:41:24;;;;;;;4.30;1.38;;;;;;;;;;5051615;28;20191;-50
2023/02/27 13:43:50;;;;;;;5.20;1.50;;;;;;;;;;5052036;28;20452;-51
2023/02/27 13:46:29;;;;;;;4.53;1.50;;;;;;;;;;5040893;28;20543;-50
2023/02/27 13:49:03;;;;;;;4.40;1.40;;;;;;;;;;5065152;28;20252;-50
2023/02/27 13:51:41;;;;;;;2.95;1.20;;;;;;;;;;5065904;28;20430;-51
2023/02/27 13:54:13;;;;;;;6.32;1.48;;;;;;;;;;5052055;28;20210;-51
2023/02/27 13:56:42;;;;;;;4.18;1.45;;;;;;;;;;5036166;28;20195;-51
2023/02/27 13:59:23;;;;;;;8.52;1.25;;;;;;;;;;5058819;28;20453;-51
2023/02/27 14:02:01;;;;;;;7.13;1.40;;;;;;;;;;5059881;28;20435;-50
2023/02/27 14:04:29;;;;;;;5.47;1.58;;;;;;;;;;5056465;28;20186;-50
2023/02/27 14:06:59;;;;;;;4.05;1.40;;;;;;;;;;5062313;28;20182;-51
2023/02/27 14:09:25;;;;;;;3.22;1.20;;;;;;;;;;5064973;28;20553;-51
2023/02/27 14:11:57;;;;;;;7.00;1.20;;;;;;;;;;5054089;28;20182;-50
2023/02/27 14:14:35;;;;;;;1.63;1.23;;;;;;;;;;5059375;28;20197;-51
2023/02/27 14:17:02;;;;;;;2.10;1.33;;;;;;;;;;5061809;28;20186;-51
2023/02/27 14:19:42;;;;;;;3.17;1.40;;;;;;;;;;5061867;28;20184;-50
2023/02/27 14:22:08;;;;;;;2.88;1.42;;;;;;;;;;5063430;28;20185;-51
2023/02/27 14:24:37;;;;;;;1.25;1.10;;;;;;;;;;5046346;28;20191;-51
2023/02/27 14:27:03;;;;;;;3.38;1.38;;;;;;;;;;5056827;28;20179;-51
2023/02/27 14:29:32;;;;;;;4.95;1.65;;;;;;;;;;5047854;28;20228;-51
2023/02/27 14:32:00;;;;;;;3.08;1.20;;;;;;;;;;5046665;28;20179;-51
2023/02/27 14:34:26;;;;;;;2.58;1.13;;;;;;;;;;5046819;28;20176;-51
2023/02/27 14:36:56;;;;;;;1.77;1.00;;;;;;;;;;5053181;28;20179;-51
2023/02/27 14:39:22;;;;;;;2.47;0.93;;;;;;;;;;5045266;28;20212;-51
2023/02/27 14:41:55;;;;;;;2.33;1.20;;;;;;;;;;5049613;28;20183;-51
2023/02/27 14:44:23;;;;;;;1.17;1.08;;;;;;;;;;5049596;28;20187;-52
2023/02/27 14:46:49;;;;;;;2.10;1.20;;;;;;;;;;5040738;28;20175;-51
2023/02/27 14:49:20;;;;;;;1.95;0.90;;;;;;;;;;5044835;28;20195;-51
2023/02/27 14:51:46;;;;;;;2.00;1.00;;;;;;;;;;5035147;28;20262;-51
2023/02/27 14:54:16;;;;;;;3.50;1.10;;;;;;;;;;5034792;28;20294;-51
2023/02/27 14:57:03;;;;;;;1.95;1.10;;;;;;;;;;5043628;28;20191;-51
2023/02/27 14:59:34;;;;;;;2.13;1.20;;;;;;;;;;5038907;28;20191;-51
2023/02/27 15:02:03;;;;;;;0.75;0.75;;;;;;;;;;5043304;28;20413;-51